sensor_id;sensor_type;location;lat;lon;timestamp;P1;durP1;ratioP1;P2;durP2;ratioP2
37383;SDS011;23258;49.718;11.082;2023-05-10T00:02:04;2.88;;;2.67;;
37383;SDS011;23258;49.718;11.082;2023-05-10T00:04:34;2.88;;;2.67;;
37383;SDS011;23258;49.718;11.082;2023-05-10T00:07:04;2.95;;;2.67;;
37383;SDS011;23258;49.718;11.082;2023-05-10T00:09:36;2.10;;;2.00;;
37383;SDS011;23258;49.718;11.082;2023-05-10T00:12:06;2.50;;;2.00;;
37383;SDS011;23258;49.718;11.082;2023-05-10T00:14:36;2.13;;;2.03;;
37383;SDS011;23258;49.718;11.082;2023-05-10T00:17:06;1.95;;;1.85;;
37383;SDS011;23258;49.718;11.082;2023-05-10T00:19:35;2.63;;;2.42;;
37383;SDS011;23258;49.718;11.082;2023-05-10T00:22:05;2.40;;;2.20;;
37383;SDS011;23258;49.718;11.082;2023-05-10T00:24:37;2.47;;;2.28;;
37383;SDS011;23258;49.718;11.082;2023-05-10T00:27:07;2.58;;;2.38;;
37383;SDS011;23258;49.718;11.082;2023-05-10T00:29:36;2.67;;;1.98;;
37383;SDS011;23258;49.718;11.082;2023-05-10T00:32:06;3.17;;;2.38;;
37383;SDS011;23258;49.718;11.082;2023-05-10T00:34:35;4.57;;;2.53;;
37383;SDS011;23258;49.718;11.082;2023-05-10T00:37:05;2.60;;;2.40;;
37383;SDS011;23258;49.718;11.082;2023-05-10T00:39:37;2.95;;;2.75;;
37383;SDS011;23258;49.718;11.082;2023-05-10T00:42:07;2.70;;;2.50;;
37383;SDS011;23258;49.718;11.082;2023-05-10T00:44:37;3.38;;;2.83;;
37383;SDS011;23258;49.718;11.082;2023-05-10T00:47:06;2.67;;;2.47;;
37383;SDS011;23258;49.718;11.082;2023-05-10T00:49:36;2.55;;;2.35;;
37383;SDS011;23258;49.718;11.082;2023-05-10T00:52:07;2.42;;;2.22;;
37383;SDS011;23258;49.718;11.082;2023-05-10T00:54:39;2.63;;;2.42;;
37383;SDS011;23258;49.718;11.082;2023-05-10T00:57:10;2.97;;;2.78;;
37383;SDS011;23258;49.718;11.082;2023-05-10T00:59:39;2.33;;;2.15;;
37383;SDS011;23258;49.718;11.082;2023-05-10T01:02:09;2.30;;;2.20;;
37383;SDS011;23258;49.718;11.082;2023-05-10T01:04:39;3.13;;;2.80;;
37383;SDS011;23258;49.718;11.082;2023-05-10T01:07:09;3.00;;;2.80;;
37383;SDS011;23258;49.718;11.082;2023-05-10T01:09:41;2.45;;;2.25;;
37383;SDS011;23258;49.718;11.082;2023-05-10T01:12:11;2.92;;;2.72;;
37383;SDS011;23258;49.718;11.082;2023-05-10T01:14:41;3.53;;;3.15;;
37383;SDS011;23258;49.718;11.082;2023-05-10T01:17:11;3.08;;;2.88;;
37383;SDS011;23258;49.718;11.082;2023-05-10T01:19:41;2.95;;;2.75;;
37383;SDS011;23258;49.718;11.082;2023-05-10T01:22:16;3.47;;;3.17;;
37383;SDS011;23258;49.718;11.082;2023-05-10T01:27:47;3.10;;;2.90;;
37383;SDS011;23258;49.718;11.082;2023-05-10T01:33:05;2.90;;;2.70;;
37383;SDS011;23258;49.718;11.082;2023-05-10T01:35:40;2.92;;;2.70;;
37383;SDS011;23258;49.718;11.082;2023-05-10T01:38:14;3.83;;;3.13;;
37383;SDS011;23258;49.718;11.082;2023-05-10T01:40:48;3.05;;;2.85;;
37383;SDS011;23258;49.718;11.082;2023-05-10T01:43:21;3.65;;;3.35;;
37383;SDS011;23258;49.718;11.082;2023-05-10T01:45:54;3.45;;;3.15;;
37383;SDS011;23258;49.718;11.082;2023-05-10T01:48:33;3.58;;;3.28;;
37383;SDS011;23258;49.718;11.082;2023-05-10T01:51:03;3.40;;;3.20;;
37383;SDS011;23258;49.718;11.082;2023-05-10T01:53:34;4.43;;;3.53;;
37383;SDS011;23258;49.718;11.082;2023-05-10T01:56:05;3.80;;;3.50;;
37383;SDS011;23258;49.718;11.082;2023-05-10T01:58:36;4.55;;;3.10;;
37383;SDS011;23258;49.718;11.082;2023-05-10T02:01:09;3.80;;;3.50;;
37383;SDS011;23258;49.718;11.082;2023-05-10T02:03:42;4.10;;;3.80;;
37383;SDS011;23258;49.718;11.082;2023-05-10T02:06:12;4.50;;;4.10;;
37383;SDS011;23258;49.718;11.082;2023-05-10T02:08:42;3.70;;;3.30;;
37383;SDS011;23258;49.718;11.082;2023-05-10T02:11:13;3.78;;;3.35;;
37383;SDS011;23258;49.718;11.082;2023-05-10T02:13:43;8.32;;;4.15;;
37383;SDS011;23258;49.718;11.082;2023-05-10T02:16:14;4.75;;;3.97;;
37383;SDS011;23258;49.718;11.082;2023-05-10T02:18:46;4.53;;;4.13;;
37383;SDS011;23258;49.718;11.082;2023-05-10T02:21:17;6.05;;;3.97;;
37383;SDS011;23258;49.718;11.082;2023-05-10T02:23:47;4.45;;;4.05;;
37383;SDS011;23258;49.718;11.082;2023-05-10T02:26:17;4.38;;;3.97;;
37383;SDS011;23258;49.718;11.082;2023-05-10T02:28:50;4.30;;;3.90;;
37383;SDS011;23258;49.718;11.082;2023-05-10T02:31:20;4.63;;;4.20;;
37383;SDS011;23258;49.718;11.082;2023-05-10T02:33:53;3.92;;;3.63;;
37383;SDS011;23258;49.718;11.082;2023-05-10T02:36:23;4.00;;;3.70;;
37383;SDS011;23258;49.718;11.082;2023-05-10T02:38:54;5.10;;;4.63;;
37383;SDS011;23258;49.718;11.082;2023-05-10T02:41:24;4.70;;;4.30;;
37383;SDS011;23258;49.718;11.082;2023-05-10T02:43:55;4.25;;;3.85;;
37383;SDS011;23258;49.718;11.082;2023-05-10T02:46:26;4.47;;;4.07;;
37383;SDS011;23258;49.718;11.082;2023-05-10T02:48:58;4.15;;;3.75;;
37383;SDS011;23258;49.718;11.082;2023-05-10T02:51:30;4.88;;;4.40;;
37383;SDS011;23258;49.718;11.082;2023-05-10T02:54:01;4.85;;;4.45;;
37383;SDS011;23258;49.718;11.082;2023-05-10T02:56:34;5.32;;;4.82;;
37383;SDS011;23258;49.718;11.082;2023-05-10T02:59:06;4.50;;;4.10;;
37383;SDS011;23258;49.718;11.082;2023-05-10T03:01:35;7.22;;;4.57;;
37383;SDS011;23258;49.718;11.082;2023-05-10T03:04:08;5.75;;;4.70;;
37383;SDS011;23258;49.718;11.082;2023-05-10T03:06:38;5.18;;;4.68;;
37383;SDS011;23258;49.718;11.082;2023-05-10T03:09:07;6.03;;;5.15;;
37383;SDS011;23258;49.718;11.082;2023-05-10T03:11:43;5.32;;;4.80;;
37383;SDS011;23258;49.718;11.082;2023-05-10T03:14:21;4.57;;;4.18;;
37383;SDS011;23258;49.718;11.082;2023-05-10T03:16:56;4.72;;;4.32;;
37383;SDS011;23258;49.718;11.082;2023-05-10T03:19:30;4.80;;;4.35;;
37383;SDS011;23258;49.718;11.082;2023-05-10T03:22:03;5.07;;;4.68;;
37383;SDS011;23258;49.718;11.082;2023-05-10T03:24:35;5.25;;;4.75;;
37383;SDS011;23258;49.718;11.082;2023-05-10T03:27:06;4.43;;;4.07;;
37383;SDS011;23258;49.718;11.082;2023-05-10T03:29:37;7.22;;;5.03;;
37383;SDS011;23258;49.718;11.082;2023-05-10T03:32:07;4.82;;;4.43;;
37383;SDS011;23258;49.718;11.082;2023-05-10T03:34:43;5.20;;;4.75;;
37383;SDS011;23258;49.718;11.082;2023-05-10T03:37:13;5.25;;;4.45;;
37383;SDS011;23258;49.718;11.082;2023-05-10T03:39:43;4.82;;;4.13;;
37383;SDS011;23258;49.718;11.082;2023-05-10T03:42:12;7.60;;;4.00;;
37383;SDS011;23258;49.718;11.082;2023-05-10T03:44:44;4.00;;;3.65;;
37383;SDS011;23258;49.718;11.082;2023-05-10T03:47:16;3.33;;;3.03;;
37383;SDS011;23258;49.718;11.082;2023-05-10T03:49:49;3.25;;;2.95;;
37383;SDS011;23258;49.718;11.082;2023-05-10T03:52:18;4.78;;;3.15;;
37383;SDS011;23258;49.718;11.082;2023-05-10T03:54:48;3.47;;;3.17;;
37383;SDS011;23258;49.718;11.082;2023-05-10T03:57:18;3.50;;;3.20;;
37383;SDS011;23258;49.718;11.082;2023-05-10T03:59:47;2.80;;;2.60;;
37383;SDS011;23258;49.718;11.082;2023-05-10T04:02:17;2.60;;;2.40;;
37383;SDS011;23258;49.718;11.082;2023-05-10T04:04:49;2.72;;;2.30;;
37383;SDS011;23258;49.718;11.082;2023-05-10T04:07:19;2.50;;;2.30;;
37383;SDS011;23258;49.718;11.082;2023-05-10T04:09:49;2.30;;;2.03;;
37383;SDS011;23258;49.718;11.082;2023-05-10T04:12:21;2.53;;;2.30;;
37383;SDS011;23258;49.718;11.082;2023-05-10T04:14:50;2.83;;;2.13;;
37383;SDS011;23258;49.718;11.082;2023-05-10T04:17:20;1.30;;;1.27;;
37383;SDS011;23258;49.718;11.082;2023-05-10T04:19:52;1.58;;;1.45;;
37383;SDS011;23258;49.718;11.082;2023-05-10T04:22:22;1.52;;;1.42;;
37383;SDS011;23258;49.718;11.082;2023-05-10T04:24:52;1.60;;;1.30;;
37383;SDS011;23258;49.718;11.082;2023-05-10T04:27:21;1.60;;;1.50;;
37383;SDS011;23258;49.718;11.082;2023-05-10T04:29:51;1.70;;;1.60;;
37383;SDS011;23258;49.718;11.082;2023-05-10T04:32:20;1.77;;;1.60;;
37383;SDS011;23258;49.718;11.082;2023-05-10T04:34:53;1.60;;;1.50;;
37383;SDS011;23258;49.718;11.082;2023-05-10T04:37:22;4.45;;;2.53;;
37383;SDS011;23258;49.718;11.082;2023-05-10T04:39:52;1.98;;;1.52;;
37383;SDS011;23258;49.718;11.082;2023-05-10T04:42:22;1.20;;;1.15;;
37383;SDS011;23258;49.718;11.082;2023-05-10T04:44:51;1.08;;;1.08;;
37383;SDS011;23258;49.718;11.082;2023-05-10T04:47:21;0.85;;;0.85;;
37383;SDS011;23258;49.718;11.082;2023-05-10T04:49:53;0.88;;;0.60;;
37383;SDS011;23258;49.718;11.082;2023-05-10T04:52:23;0.80;;;0.80;;
37383;SDS011;23258;49.718;11.082;2023-05-10T04:54:53;0.80;;;0.80;;
37383;SDS011;23258;49.718;11.082;2023-05-10T04:57:22;2.53;;;0.70;;
37383;SDS011;23258;49.718;11.082;2023-05-10T04:59:52;1.20;;;0.82;;
37383;SDS011;23258;49.718;11.082;2023-05-10T05:02:22;0.73;;;0.73;;
37383;SDS011;23258;49.718;11.082;2023-05-10T05:04:55;0.60;;;0.60;;
37383;SDS011;23258;49.718;11.082;2023-05-10T05:07:25;1.00;;;1.00;;
37383;SDS011;23258;49.718;11.082;2023-05-10T05:09:54;0.70;;;0.70;;
37383;SDS011;23258;49.718;11.082;2023-05-10T05:12:24;0.50;;;0.50;;
37383;SDS011;23258;49.718;11.082;2023-05-10T05:14:53;0.57;;;0.57;;
37383;SDS011;23258;49.718;11.082;2023-05-10T05:17:23;0.82;;;0.82;;
37383;SDS011;23258;49.718;11.082;2023-05-10T05:19:55;0.80;;;0.77;;
37383;SDS011;23258;49.718;11.082;2023-05-10T05:22:25;0.60;;;0.60;;
37383;SDS011;23258;49.718;11.082;2023-05-10T05:24:55;0.90;;;0.75;;
37383;SDS011;23258;49.718;11.082;2023-05-10T05:27:25;0.70;;;0.70;;
37383;SDS011;23258;49.718;11.082;2023-05-10T05:29:55;0.88;;;0.88;;
37383;SDS011;23258;49.718;11.082;2023-05-10T05:32:25;0.82;;;0.82;;
37383;SDS011;23258;49.718;11.082;2023-05-10T05:34:57;0.90;;;0.90;;
37383;SDS011;23258;49.718;11.082;2023-05-10T05:37:27;0.70;;;0.70;;
37383;SDS011;23258;49.718;11.082;2023-05-10T05:39:56;0.60;;;0.60;;
37383;SDS011;23258;49.718;11.082;2023-05-10T05:42:28;0.40;;;0.40;;
37383;SDS011;23258;49.718;11.082;2023-05-10T05:44:58;0.73;;;0.73;;
37383;SDS011;23258;49.718;11.082;2023-05-10T05:47:27;0.63;;;0.60;;
37383;SDS011;23258;49.718;11.082;2023-05-10T05:50:00;0.68;;;0.68;;
37383;SDS011;23258;49.718;11.082;2023-05-10T05:52:30;0.45;;;0.40;;
37383;SDS011;23258;49.718;11.082;2023-05-10T05:54:59;0.57;;;0.57;;
37383;SDS011;23258;49.718;11.082;2023-05-10T05:57:29;0.55;;;0.55;;
37383;SDS011;23258;49.718;11.082;2023-05-10T05:59:59;0.40;;;0.40;;
37383;SDS011;23258;49.718;11.082;2023-05-10T06:02:37;0.73;;;0.73;;
37383;SDS011;23258;49.718;11.082;2023-05-10T06:05:10;0.60;;;0.60;;
37383;SDS011;23258;49.718;11.082;2023-05-10T06:07:41;0.60;;;0.60;;
37383;SDS011;23258;49.718;11.082;2023-05-10T06:10:11;0.55;;;0.55;;
37383;SDS011;23258;49.718;11.082;2023-05-10T06:12:40;0.60;;;0.60;;
37383;SDS011;23258;49.718;11.082;2023-05-10T06:15:10;0.45;;;0.45;;
37383;SDS011;23258;49.718;11.082;2023-05-10T06:17:40;0.60;;;0.60;;
37383;SDS011;23258;49.718;11.082;2023-05-10T06:20:14;0.95;;;0.95;;
37383;SDS011;23258;49.718;11.082;2023-05-10T06:22:44;1.05;;;0.90;;
37383;SDS011;23258;49.718;11.082;2023-05-10T06:25:14;0.68;;;0.68;;
37383;SDS011;23258;49.718;11.082;2023-05-10T06:27:44;0.68;;;0.68;;
37383;SDS011;23258;49.718;11.082;2023-05-10T06:30:19;1.38;;;0.82;;
37383;SDS011;23258;49.718;11.082;2023-05-10T06:32:49;0.68;;;0.68;;
37383;SDS011;23258;49.718;11.082;2023-05-10T06:35:21;1.08;;;1.08;;
37383;SDS011;23258;49.718;11.082;2023-05-10T06:37:52;0.75;;;0.75;;
37383;SDS011;23258;49.718;11.082;2023-05-10T06:40:21;0.52;;;0.52;;
37383;SDS011;23258;49.718;11.082;2023-05-10T06:42:51;1.00;;;1.00;;
37383;SDS011;23258;49.718;11.082;2023-05-10T06:45:21;0.98;;;0.68;;
37383;SDS011;23258;49.718;11.082;2023-05-10T06:47:50;0.95;;;0.95;;
37383;SDS011;23258;49.718;11.082;2023-05-10T06:50:23;0.82;;;0.82;;
37383;SDS011;23258;49.718;11.082;2023-05-10T06:52:52;0.90;;;0.90;;
37383;SDS011;23258;49.718;11.082;2023-05-10T06:55:22;0.88;;;0.88;;
37383;SDS011;23258;49.718;11.082;2023-05-10T06:57:52;1.10;;;1.10;;
37383;SDS011;23258;49.718;11.082;2023-05-10T07:00:21;0.73;;;0.73;;
37383;SDS011;23258;49.718;11.082;2023-05-10T07:02:51;0.75;;;0.75;;
37383;SDS011;23258;49.718;11.082;2023-05-10T07:05:24;1.17;;;1.08;;
37383;SDS011;23258;49.718;11.082;2023-05-10T07:07:54;0.90;;;0.90;;
37383;SDS011;23258;49.718;11.082;2023-05-10T07:10:24;0.85;;;0.85;;
37383;SDS011;23258;49.718;11.082;2023-05-10T07:12:53;0.90;;;0.90;;
37383;SDS011;23258;49.718;11.082;2023-05-10T07:15:23;2.20;;;1.00;;
37383;SDS011;23258;49.718;11.082;2023-05-10T07:17:53;0.80;;;0.80;;
37383;SDS011;23258;49.718;11.082;2023-05-10T07:20:26;0.70;;;0.70;;
37383;SDS011;23258;49.718;11.082;2023-05-10T07:22:55;1.70;;;1.00;;
37383;SDS011;23258;49.718;11.082;2023-05-10T07:25:25;0.90;;;0.90;;
37383;SDS011;23258;49.718;11.082;2023-05-10T07:27:55;1.05;;;0.85;;
37383;SDS011;23258;49.718;11.082;2023-05-10T07:30:24;1.00;;;0.90;;
37383;SDS011;23258;49.718;11.082;2023-05-10T07:32:54;0.68;;;0.68;;
37383;SDS011;23258;49.718;11.082;2023-05-10T07:35:26;0.90;;;0.90;;
37383;SDS011;23258;49.718;11.082;2023-05-10T07:37:56;0.90;;;0.90;;
37383;SDS011;23258;49.718;11.082;2023-05-10T07:40:26;0.70;;;0.70;;
37383;SDS011;23258;49.718;11.082;2023-05-10T07:42:56;0.77;;;0.73;;
37383;SDS011;23258;49.718;11.082;2023-05-10T07:45:26;3.83;;;0.75;;
37383;SDS011;23258;49.718;11.082;2023-05-10T07:47:56;1.27;;;0.85;;
37383;SDS011;23258;49.718;11.082;2023-05-10T07:50:28;0.77;;;0.77;;
37383;SDS011;23258;49.718;11.082;2023-05-10T07:52:58;0.70;;;0.70;;
37383;SDS011;23258;49.718;11.082;2023-05-10T07:55:28;0.60;;;0.60;;
37383;SDS011;23258;49.718;11.082;2023-05-10T07:57:57;0.80;;;0.80;;
37383;SDS011;23258;49.718;11.082;2023-05-10T08:02:57;0.60;;;0.60;;
37383;SDS011;23258;49.718;11.082;2023-05-10T08:05:29;0.55;;;0.55;;
37383;SDS011;23258;49.718;11.082;2023-05-10T08:08:01;0.77;;;0.77;;
37383;SDS011;23258;49.718;11.082;2023-05-10T08:10:31;0.68;;;0.68;;
37383;SDS011;23258;49.718;11.082;2023-05-10T08:13:00;0.50;;;0.50;;
37383;SDS011;23258;49.718;11.082;2023-05-10T08:15:30;0.40;;;0.40;;
37383;SDS011;23258;49.718;11.082;2023-05-10T08:18:00;0.70;;;0.70;;
37383;SDS011;23258;49.718;11.082;2023-05-10T08:20:33;0.65;;;0.65;;
37383;SDS011;23258;49.718;11.082;2023-05-10T08:23:03;0.77;;;0.77;;
37383;SDS011;23258;49.718;11.082;2023-05-10T08:25:33;0.65;;;0.65;;
37383;SDS011;23258;49.718;11.082;2023-05-10T08:28:02;0.63;;;0.63;;
37383;SDS011;23258;49.718;11.082;2023-05-10T08:30:33;0.50;;;0.50;;
37383;SDS011;23258;49.718;11.082;2023-05-10T08:33:02;0.68;;;0.68;;
37383;SDS011;23258;49.718;11.082;2023-05-10T08:35:35;0.47;;;0.47;;
37383;SDS011;23258;49.718;11.082;2023-05-10T08:38:05;1.65;;;0.55;;
37383;SDS011;23258;49.718;11.082;2023-05-10T08:40:34;0.50;;;0.50;;
37383;SDS011;23258;49.718;11.082;2023-05-10T08:43:06;0.80;;;0.55;;
37383;SDS011;23258;49.718;11.082;2023-05-10T08:45:37;0.63;;;0.63;;
37383;SDS011;23258;49.718;11.082;2023-05-10T08:48:07;0.55;;;0.55;;
37383;SDS011;23258;49.718;11.082;2023-05-10T08:50:40;0.70;;;0.70;;
37383;SDS011;23258;49.718;11.082;2023-05-10T08:53:11;0.80;;;0.80;;
37383;SDS011;23258;49.718;11.082;2023-05-10T08:55:41;1.23;;;0.80;;
37383;SDS011;23258;49.718;11.082;2023-05-10T08:58:11;1.00;;;0.90;;
37383;SDS011;23258;49.718;11.082;2023-05-10T09:00:41;0.90;;;0.90;;
37383;SDS011;23258;49.718;11.082;2023-05-10T09:03:11;0.70;;;0.70;;
37383;SDS011;23258;49.718;11.082;2023-05-10T09:05:44;0.90;;;0.90;;
37383;SDS011;23258;49.718;11.082;2023-05-10T09:08:14;1.30;;;1.20;;
37383;SDS011;23258;49.718;11.082;2023-05-10T09:10:44;1.38;;;1.38;;
37383;SDS011;23258;49.718;11.082;2023-05-10T09:13:14;1.08;;;1.08;;
37383;SDS011;23258;49.718;11.082;2023-05-10T09:15:44;1.00;;;1.00;;
37383;SDS011;23258;49.718;11.082;2023-05-10T09:18:14;1.42;;;1.38;;
37383;SDS011;23258;49.718;11.082;2023-05-10T09:20:48;1.20;;;0.80;;
37383;SDS011;23258;49.718;11.082;2023-05-10T09:23:17;0.80;;;0.80;;
37383;SDS011;23258;49.718;11.082;2023-05-10T09:25:47;0.82;;;0.82;;
37383;SDS011;23258;49.718;11.082;2023-05-10T09:28:16;0.80;;;0.75;;
37383;SDS011;23258;49.718;11.082;2023-05-10T09:30:46;0.70;;;0.70;;
37383;SDS011;23258;49.718;11.082;2023-05-10T09:33:22;1.10;;;1.10;;
37383;SDS011;23258;49.718;11.082;2023-05-10T09:38:23;0.88;;;0.88;;
37383;SDS011;23258;49.718;11.082;2023-05-10T09:40:53;0.70;;;0.70;;
37383;SDS011;23258;49.718;11.082;2023-05-10T09:43:24;0.98;;;0.90;;
37383;SDS011;23258;49.718;11.082;2023-05-10T09:45:54;2.08;;;0.98;;
37383;SDS011;23258;49.718;11.082;2023-05-10T09:48:23;1.10;;;1.10;;
37383;SDS011;23258;49.718;11.082;2023-05-10T09:50:56;0.60;;;0.60;;
37383;SDS011;23258;49.718;11.082;2023-05-10T09:53:28;1.20;;;1.00;;
37383;SDS011;23258;49.718;11.082;2023-05-10T09:55:58;1.38;;;1.27;;
37383;SDS011;23258;49.718;11.082;2023-05-10T09:58:27;3.60;;;1.10;;
37383;SDS011;23258;49.718;11.082;2023-05-10T10:00:57;0.73;;;0.73;;
37383;SDS011;23258;49.718;11.082;2023-05-10T10:03:27;0.80;;;0.80;;
37383;SDS011;23258;49.718;11.082;2023-05-10T10:05:57;0.93;;;0.93;;
37383;SDS011;23258;49.718;11.082;2023-05-10T10:08:30;1.00;;;1.00;;
37383;SDS011;23258;49.718;11.082;2023-05-10T10:10:59;1.20;;;1.10;;
37383;SDS011;23258;49.718;11.082;2023-05-10T10:13:29;0.88;;;0.88;;
37383;SDS011;23258;49.718;11.082;2023-05-10T10:15:59;1.27;;;1.10;;
37383;SDS011;23258;49.718;11.082;2023-05-10T10:20:58;1.40;;;1.25;;
37383;SDS011;23258;49.718;11.082;2023-05-10T10:23:30;1.17;;;1.08;;
37383;SDS011;23258;49.718;11.082;2023-05-10T10:26:00;1.00;;;0.98;;
37383;SDS011;23258;49.718;11.082;2023-05-10T10:28:33;1.42;;;0.90;;
37383;SDS011;23258;49.718;11.082;2023-05-10T10:31:12;0.85;;;0.85;;
37383;SDS011;23258;49.718;11.082;2023-05-10T10:33:55;1.30;;;1.13;;
37383;SDS011;23258;49.718;11.082;2023-05-10T10:36:26;0.88;;;0.88;;
37383;SDS011;23258;49.718;11.082;2023-05-10T10:39:00;1.70;;;0.90;;
37383;SDS011;23258;49.718;11.082;2023-05-10T10:41:31;0.80;;;0.80;;
37383;SDS011;23258;49.718;11.082;2023-05-10T10:46:58;0.93;;;0.93;;
37383;SDS011;23258;49.718;11.082;2023-05-10T10:49:30;0.77;;;0.77;;
37383;SDS011;23258;49.718;11.082;2023-05-10T10:52:13;0.60;;;0.60;;
37383;SDS011;23258;49.718;11.082;2023-05-10T10:54:49;0.68;;;0.68;;
37383;SDS011;23258;49.718;11.082;2023-05-10T10:57:19;0.43;;;0.43;;
37383;SDS011;23258;49.718;11.082;2023-05-10T10:59:58;0.80;;;0.80;;
37383;SDS011;23258;49.718;11.082;2023-05-10T11:02:47;0.50;;;0.50;;
37383;SDS011;23258;49.718;11.082;2023-05-10T11:05:34;0.95;;;0.93;;
37383;SDS011;23258;49.718;11.082;2023-05-10T11:11:02;2.25;;;0.90;;
37383;SDS011;23258;49.718;11.082;2023-05-10T11:13:34;0.80;;;0.80;;
37383;SDS011;23258;49.718;11.082;2023-05-10T11:16:11;0.47;;;0.47;;
37383;SDS011;23258;49.718;11.082;2023-05-10T11:18:52;1.67;;;0.50;;
37383;SDS011;23258;49.718;11.082;2023-05-10T11:21:22;0.93;;;0.82;;
37383;SDS011;23258;49.718;11.082;2023-05-10T11:23:52;1.02;;;0.70;;
37383;SDS011;23258;49.718;11.082;2023-05-10T11:26:26;1.97;;;0.90;;
37383;SDS011;23258;49.718;11.082;2023-05-10T11:28:59;0.60;;;0.60;;
37383;SDS011;23258;49.718;11.082;2023-05-10T11:31:31;1.40;;;1.30;;
37383;SDS011;23258;49.718;11.082;2023-05-10T11:34:01;0.95;;;0.95;;
37383;SDS011;23258;49.718;11.082;2023-05-10T11:36:32;0.80;;;0.80;;
37383;SDS011;23258;49.718;11.082;2023-05-10T11:39:03;1.10;;;0.82;;
37383;SDS011;23258;49.718;11.082;2023-05-10T11:41:35;2.40;;;0.75;;
37383;SDS011;23258;49.718;11.082;2023-05-10T11:44:08;1.00;;;1.00;;
37383;SDS011;23258;49.718;11.082;2023-05-10T11:46:38;1.13;;;0.90;;
37383;SDS011;23258;49.718;11.082;2023-05-10T11:49:08;1.83;;;1.30;;
37383;SDS011;23258;49.718;11.082;2023-05-10T11:51:38;1.23;;;1.15;;
37383;SDS011;23258;49.718;11.082;2023-05-10T11:54:10;3.38;;;1.52;;
37383;SDS011;23258;49.718;11.082;2023-05-10T11:56:43;0.90;;;0.90;;
37383;SDS011;23258;49.718;11.082;2023-05-10T11:59:13;1.80;;;1.30;;
37383;SDS011;23258;49.718;11.082;2023-05-10T12:01:43;1.05;;;1.05;;
37383;SDS011;23258;49.718;11.082;2023-05-10T12:04:15;1.95;;;1.05;;
37383;SDS011;23258;49.718;11.082;2023-05-10T12:06:46;1.15;;;1.08;;
37383;SDS011;23258;49.718;11.082;2023-05-10T12:09:15;0.85;;;0.85;;
37383;SDS011;23258;49.718;11.082;2023-05-10T12:12:08;0.85;;;0.85;;
37383;SDS011;23258;49.718;11.082;2023-05-10T12:14:37;3.00;;;0.90;;
37383;SDS011;23258;49.718;11.082;2023-05-10T12:17:11;1.40;;;1.30;;
37383;SDS011;23258;49.718;11.082;2023-05-10T12:22:10;1.05;;;1.05;;
37383;SDS011;23258;49.718;11.082;2023-05-10T12:24:39;0.63;;;0.63;;
37383;SDS011;23258;49.718;11.082;2023-05-10T12:27:12;0.82;;;0.82;;
37383;SDS011;23258;49.718;11.082;2023-05-10T12:29:42;1.80;;;0.80;;
37383;SDS011;23258;49.718;11.082;2023-05-10T12:32:13;0.93;;;0.93;;
37383;SDS011;23258;49.718;11.082;2023-05-10T12:34:42;0.65;;;0.65;;
37383;SDS011;23258;49.718;11.082;2023-05-10T12:37:16;1.92;;;0.80;;
37383;SDS011;23258;49.718;11.082;2023-05-10T12:39:46;1.15;;;1.08;;
37383;SDS011;23258;49.718;11.082;2023-05-10T12:42:18;1.05;;;1.00;;
37383;SDS011;23258;49.718;11.082;2023-05-10T12:44:47;1.30;;;1.00;;
37383;SDS011;23258;49.718;11.082;2023-05-10T12:47:17;1.95;;;1.00;;
37383;SDS011;23258;49.718;11.082;2023-05-10T12:49:47;1.48;;;1.38;;
37383;SDS011;23258;49.718;11.082;2023-05-10T12:52:17;0.98;;;0.98;;
37383;SDS011;23258;49.718;11.082;2023-05-10T12:54:47;1.83;;;1.30;;
37383;SDS011;23258;49.718;11.082;2023-05-10T12:57:19;0.82;;;0.82;;
37383;SDS011;23258;49.718;11.082;2023-05-10T12:59:49;0.60;;;0.60;;
37383;SDS011;23258;49.718;11.082;2023-05-10T13:02:19;0.93;;;0.93;;
37383;SDS011;23258;49.718;11.082;2023-05-10T13:04:50;2.28;;;1.23;;
37383;SDS011;23258;49.718;11.082;2023-05-10T13:07:19;1.27;;;0.68;;
37383;SDS011;23258;49.718;11.082;2023-05-10T13:09:49;0.98;;;0.98;;
37383;SDS011;23258;49.718;11.082;2023-05-10T13:12:21;1.15;;;1.00;;
37383;SDS011;23258;49.718;11.082;2023-05-10T13:14:51;1.33;;;0.80;;
37383;SDS011;23258;49.718;11.082;2023-05-10T13:17:20;1.13;;;0.77;;
37383;SDS011;23258;49.718;11.082;2023-05-10T13:19:50;0.85;;;0.85;;
37383;SDS011;23258;49.718;11.082;2023-05-10T13:22:20;0.95;;;0.90;;
37383;SDS011;23258;49.718;11.082;2023-05-10T13:25:05;1.10;;;0.90;;
37383;SDS011;23258;49.718;11.082;2023-05-10T13:27:37;0.68;;;0.68;;
37383;SDS011;23258;49.718;11.082;2023-05-10T13:30:07;0.68;;;0.68;;
37383;SDS011;23258;49.718;11.082;2023-05-10T13:32:37;0.73;;;0.70;;
37383;SDS011;23258;49.718;11.082;2023-05-10T13:35:07;0.85;;;0.85;;
37383;SDS011;23258;49.718;11.082;2023-05-10T13:37:37;0.93;;;0.85;;
37383;SDS011;23258;49.718;11.082;2023-05-10T13:40:07;0.98;;;0.82;;
37383;SDS011;23258;49.718;11.082;2023-05-10T13:42:40;1.23;;;1.13;;
37383;SDS011;23258;49.718;11.082;2023-05-10T13:45:10;0.88;;;0.88;;
37383;SDS011;23258;49.718;11.082;2023-05-10T13:47:40;2.10;;;0.95;;
37383;SDS011;23258;49.718;11.082;2023-05-10T13:50:10;3.35;;;1.33;;
37383;SDS011;23258;49.718;11.082;2023-05-10T13:52:39;1.00;;;1.00;;
37383;SDS011;23258;49.718;11.082;2023-05-10T13:55:09;1.27;;;0.75;;
37383;SDS011;23258;49.718;11.082;2023-05-10T13:57:42;1.10;;;1.10;;
37383;SDS011;23258;49.718;11.082;2023-05-10T14:00:12;2.85;;;1.05;;
37383;SDS011;23258;49.718;11.082;2023-05-10T14:02:43;1.48;;;0.98;;
37383;SDS011;23258;49.718;11.082;2023-05-10T14:05:12;1.25;;;1.02;;
37383;SDS011;23258;49.718;11.082;2023-05-10T14:07:44;1.27;;;1.17;;
37383;SDS011;23258;49.718;11.082;2023-05-10T14:10:13;0.82;;;0.82;;
37383;SDS011;23258;49.718;11.082;2023-05-10T14:12:46;0.85;;;0.82;;
37383;SDS011;23258;49.718;11.082;2023-05-10T14:15:15;1.30;;;1.17;;
37383;SDS011;23258;49.718;11.082;2023-05-10T14:17:45;2.70;;;1.05;;
37383;SDS011;23258;49.718;11.082;2023-05-10T14:20:15;0.82;;;0.75;;
37383;SDS011;23258;49.718;11.082;2023-05-10T14:22:45;0.90;;;0.90;;
37383;SDS011;23258;49.718;11.082;2023-05-10T14:25:14;3.85;;;0.90;;
37383;SDS011;23258;49.718;11.082;2023-05-10T14:27:47;0.75;;;0.70;;
37383;SDS011;23258;49.718;11.082;2023-05-10T14:30:17;1.00;;;0.90;;
37383;SDS011;23258;49.718;11.082;2023-05-10T14:32:47;1.00;;;1.00;;
37383;SDS011;23258;49.718;11.082;2023-05-10T14:35:16;0.73;;;0.73;;
37383;SDS011;23258;49.718;11.082;2023-05-10T14:37:47;1.00;;;0.95;;
37383;SDS011;23258;49.718;11.082;2023-05-10T14:40:16;0.60;;;0.60;;
37383;SDS011;23258;49.718;11.082;2023-05-10T14:42:49;1.38;;;0.90;;
37383;SDS011;23258;49.718;11.082;2023-05-10T14:45:19;0.73;;;0.73;;
37383;SDS011;23258;49.718;11.082;2023-05-10T14:47:49;0.60;;;0.60;;
37383;SDS011;23258;49.718;11.082;2023-05-10T14:50:19;1.10;;;1.10;;
37383;SDS011;23258;49.718;11.082;2023-05-10T14:53:02;2.38;;;1.42;;
37383;SDS011;23258;49.718;11.082;2023-05-10T14:55:31;0.50;;;0.50;;
37383;SDS011;23258;49.718;11.082;2023-05-10T14:58:04;0.93;;;0.93;;
37383;SDS011;23258;49.718;11.082;2023-05-10T15:00:34;0.75;;;0.75;;
37383;SDS011;23258;49.718;11.082;2023-05-10T15:03:04;0.98;;;0.98;;
37383;SDS011;23258;49.718;11.082;2023-05-10T15:05:34;1.38;;;0.80;;
37383;SDS011;23258;49.718;11.082;2023-05-10T15:08:04;0.90;;;0.88;;
37383;SDS011;23258;49.718;11.082;2023-05-10T15:10:34;1.10;;;0.98;;
37383;SDS011;23258;49.718;11.082;2023-05-10T15:13:06;1.00;;;1.00;;
37383;SDS011;23258;49.718;11.082;2023-05-10T15:15:36;1.25;;;1.10;;
37383;SDS011;23258;49.718;11.082;2023-05-10T15:18:05;0.88;;;0.80;;